<?xml version="1.0" encoding="UTF-8" standalone="no" ?>
<gpx xmlns="http://www.topografix.com/GPX/1/1" xmlns:xsi="http://www.w3.org/2001/XMLSchema-instance" xsi:schemaLocation="http://www.topografix.com/GPX/1/1 http://www.topografix.com/GPX/1/1/gpx.xsd" version="1.1" creator="VisuGPX - https://www.visugpx.com">
  <metadata>
    <name>Rangiers RH 31 mai 2026</name>
  </metadata>
  <wpt lat="47.38476" lon="7.21943">
    <ele>854</ele>
    <name><![CDATA[Point de passage 1]]></name>
    <type><![CDATA[GENERIC]]></type>
  </wpt>
  <wpt lat="47.38473" lon="7.21959">
    <ele>852</ele>
    <name><![CDATA[Point de passage 2]]></name>
    <type><![CDATA[GENERIC]]></type>
  </wpt>
  <trk>
    <name><![CDATA[Rangiers RH 31 mai 2026]]></name>
    <trkseg>
      <trkpt lat="47.38476" lon="7.21943">
        <ele>854</ele>
        <time>2026-05-12T14:07:42.000Z</time>
      </trkpt>
      <trkpt lat="47.38598" lon="7.21934">
        <ele>876</ele>
        <time>2026-05-12T14:13:48.000Z</time>
      </trkpt>
      <trkpt lat="47.38634" lon="7.22284">
        <ele>910</ele>
        <time>2026-05-12T14:24:12.000Z</time>
      </trkpt>
      <trkpt lat="47.38562" lon="7.22439">
        <ele>911</ele>
        <time>2026-05-12T14:26:48.000Z</time>
      </trkpt>
      <trkpt lat="47.3853" lon="7.22679">
        <ele>920</ele>
        <time>2026-05-12T14:31:30.000Z</time>
      </trkpt>
      <trkpt lat="47.38579" lon="7.22846">
        <ele>945</ele>
        <time>2026-05-12T14:38:08.000Z</time>
      </trkpt>
      <trkpt lat="47.38676" lon="7.23047">
        <ele>980</ele>
        <time>2026-05-12T14:47:19.000Z</time>
      </trkpt>
      <trkpt lat="47.38812" lon="7.23152">
        <ele>991</ele>
        <time>2026-05-12T14:52:08.000Z</time>
      </trkpt>
      <trkpt lat="47.38971" lon="7.23076">
        <ele>971</ele>
        <time>2026-05-12T14:55:19.000Z</time>
      </trkpt>
      <trkpt lat="47.38963" lon="7.23006">
        <ele>955</ele>
        <time>2026-05-12T14:56:14.000Z</time>
      </trkpt>
      <trkpt lat="47.39001" lon="7.22915">
        <ele>934</ele>
        <time>2026-05-12T14:57:36.000Z</time>
      </trkpt>
      <trkpt lat="47.38996" lon="7.22827">
        <ele>933</ele>
        <time>2026-05-12T14:58:45.000Z</time>
      </trkpt>
      <trkpt lat="47.3912" lon="7.22676">
        <ele>922</ele>
        <time>2026-05-12T15:01:49.000Z</time>
      </trkpt>
      <trkpt lat="47.39169" lon="7.22536">
        <ele>907</ele>
        <time>2026-05-12T15:03:51.000Z</time>
      </trkpt>
      <trkpt lat="47.39189" lon="7.22334">
        <ele>888</ele>
        <time>2026-05-12T15:06:29.000Z</time>
      </trkpt>
      <trkpt lat="47.39243" lon="7.22439">
        <ele>879</ele>
        <time>2026-05-12T15:08:11.000Z</time>
      </trkpt>
      <trkpt lat="47.39336" lon="7.22462">
        <ele>877</ele>
        <time>2026-05-12T15:09:59.000Z</time>
      </trkpt>
      <trkpt lat="47.3937" lon="7.22571">
        <ele>875</ele>
        <time>2026-05-12T15:11:32.000Z</time>
      </trkpt>
      <trkpt lat="47.39414" lon="7.22564">
        <ele>873</ele>
        <time>2026-05-12T15:12:23.000Z</time>
      </trkpt>
      <trkpt lat="47.39383" lon="7.22474">
        <ele>878</ele>
        <time>2026-05-12T15:14:33.000Z</time>
      </trkpt>
      <trkpt lat="47.3938" lon="7.22318">
        <ele>882</ele>
        <time>2026-05-12T15:17:15.000Z</time>
      </trkpt>
      <trkpt lat="47.39402" lon="7.22186">
        <ele>874</ele>
        <time>2026-05-12T15:19:01.000Z</time>
      </trkpt>
      <trkpt lat="47.39444" lon="7.22193">
        <ele>876</ele>
        <time>2026-05-12T15:20:11.000Z</time>
      </trkpt>
      <trkpt lat="47.39448" lon="7.22135">
        <ele>877</ele>
        <time>2026-05-12T15:21:06.000Z</time>
      </trkpt>
      <trkpt lat="47.39446" lon="7.2206">
        <ele>871</ele>
        <time>2026-05-12T15:22:05.000Z</time>
      </trkpt>
      <trkpt lat="47.3945" lon="7.21999">
        <ele>859</ele>
        <time>2026-05-12T15:22:52.000Z</time>
      </trkpt>
      <trkpt lat="47.3946" lon="7.21969">
        <ele>854</ele>
        <time>2026-05-12T15:23:18.000Z</time>
      </trkpt>
      <trkpt lat="47.39445" lon="7.21948">
        <ele>851</ele>
        <time>2026-05-12T15:23:42.000Z</time>
      </trkpt>
      <trkpt lat="47.39441" lon="7.21899">
        <ele>847</ele>
        <time>2026-05-12T15:24:20.000Z</time>
      </trkpt>
      <trkpt lat="47.39435" lon="7.21822">
        <ele>845</ele>
        <time>2026-05-12T15:25:20.000Z</time>
      </trkpt>
      <trkpt lat="47.39424" lon="7.21775">
        <ele>842</ele>
        <time>2026-05-12T15:25:59.000Z</time>
      </trkpt>
      <trkpt lat="47.39408" lon="7.21733">
        <ele>841</ele>
        <time>2026-05-12T15:26:36.000Z</time>
      </trkpt>
      <trkpt lat="47.39396" lon="7.21695">
        <ele>841</ele>
        <time>2026-05-12T15:27:09.000Z</time>
      </trkpt>
      <trkpt lat="47.39399" lon="7.2164">
        <ele>846</ele>
        <time>2026-05-12T15:28:43.000Z</time>
      </trkpt>
      <trkpt lat="47.39401" lon="7.21589">
        <ele>845</ele>
        <time>2026-05-12T15:29:23.000Z</time>
      </trkpt>
      <trkpt lat="47.3939" lon="7.21561">
        <ele>844</ele>
        <time>2026-05-12T15:29:48.000Z</time>
      </trkpt>
      <trkpt lat="47.39363" lon="7.21534">
        <ele>845</ele>
        <time>2026-05-12T15:30:35.000Z</time>
      </trkpt>
      <trkpt lat="47.39336" lon="7.21516">
        <ele>843</ele>
        <time>2026-05-12T15:31:10.000Z</time>
      </trkpt>
      <trkpt lat="47.39303" lon="7.21511">
        <ele>831</ele>
        <time>2026-05-12T15:31:48.000Z</time>
      </trkpt>
      <trkpt lat="47.39292" lon="7.21533">
        <ele>821</ele>
        <time>2026-05-12T15:32:09.000Z</time>
      </trkpt>
      <trkpt lat="47.39309" lon="7.21584">
        <ele>814</ele>
        <time>2026-05-12T15:32:53.000Z</time>
      </trkpt>
      <trkpt lat="47.39326" lon="7.21631">
        <ele>812</ele>
        <time>2026-05-12T15:33:34.000Z</time>
      </trkpt>
      <trkpt lat="47.39326" lon="7.21711">
        <ele>799</ele>
        <time>2026-05-12T15:34:36.000Z</time>
      </trkpt>
      <trkpt lat="47.39334" lon="7.21764">
        <ele>800</ele>
        <time>2026-05-12T15:35:28.000Z</time>
      </trkpt>
      <trkpt lat="47.39332" lon="7.21827">
        <ele>799</ele>
        <time>2026-05-12T15:36:17.000Z</time>
      </trkpt>
      <trkpt lat="47.39326" lon="7.21864">
        <ele>797</ele>
        <time>2026-05-12T15:36:47.000Z</time>
      </trkpt>
      <trkpt lat="47.39321" lon="7.21839">
        <ele>793</ele>
        <time>2026-05-12T15:37:07.000Z</time>
      </trkpt>
      <trkpt lat="47.39309" lon="7.21803">
        <ele>787</ele>
        <time>2026-05-12T15:37:38.000Z</time>
      </trkpt>
      <trkpt lat="47.39294" lon="7.21787">
        <ele>780</ele>
        <time>2026-05-12T15:38:00.000Z</time>
      </trkpt>
      <trkpt lat="47.39261" lon="7.21776">
        <ele>770</ele>
        <time>2026-05-12T15:38:38.000Z</time>
      </trkpt>
      <trkpt lat="47.39231" lon="7.21794">
        <ele>767</ele>
        <time>2026-05-12T15:39:15.000Z</time>
      </trkpt>
      <trkpt lat="47.39196" lon="7.2181">
        <ele>762</ele>
        <time>2026-05-12T15:39:57.000Z</time>
      </trkpt>
      <trkpt lat="47.39151" lon="7.21826">
        <ele>760</ele>
        <time>2026-05-12T15:40:50.000Z</time>
      </trkpt>
      <trkpt lat="47.39125" lon="7.21828">
        <ele>758</ele>
        <time>2026-05-12T15:41:20.000Z</time>
      </trkpt>
      <trkpt lat="47.39108" lon="7.21808">
        <ele>753</ele>
        <time>2026-05-12T15:41:45.000Z</time>
      </trkpt>
      <trkpt lat="47.3909" lon="7.21793">
        <ele>750</ele>
        <time>2026-05-12T15:42:09.000Z</time>
      </trkpt>
      <trkpt lat="47.39073" lon="7.21803">
        <ele>749</ele>
        <time>2026-05-12T15:42:30.000Z</time>
      </trkpt>
      <trkpt lat="47.39052" lon="7.21815">
        <ele>750</ele>
        <time>2026-05-12T15:43:06.000Z</time>
      </trkpt>
      <trkpt lat="47.39037" lon="7.21798">
        <ele>754</ele>
        <time>2026-05-12T15:44:09.000Z</time>
      </trkpt>
      <trkpt lat="47.39044" lon="7.21757">
        <ele>753</ele>
        <time>2026-05-12T15:44:41.000Z</time>
      </trkpt>
      <trkpt lat="47.39041" lon="7.21708">
        <ele>754</ele>
        <time>2026-05-12T15:45:30.000Z</time>
      </trkpt>
      <trkpt lat="47.39044" lon="7.21645">
        <ele>746</ele>
        <time>2026-05-12T15:46:19.000Z</time>
      </trkpt>
      <trkpt lat="47.3906" lon="7.2161">
        <ele>734</ele>
        <time>2026-05-12T15:46:52.000Z</time>
      </trkpt>
      <trkpt lat="47.39073" lon="7.21634">
        <ele>731</ele>
        <time>2026-05-12T15:47:16.000Z</time>
      </trkpt>
      <trkpt lat="47.39079" lon="7.21669">
        <ele>733</ele>
        <time>2026-05-12T15:48:05.000Z</time>
      </trkpt>
      <trkpt lat="47.39097" lon="7.21691">
        <ele>737</ele>
        <time>2026-05-12T15:49:12.000Z</time>
      </trkpt>
      <trkpt lat="47.39114" lon="7.21657">
        <ele>732</ele>
        <time>2026-05-12T15:49:45.000Z</time>
      </trkpt>
      <trkpt lat="47.39117" lon="7.21606">
        <ele>729</ele>
        <time>2026-05-12T15:50:25.000Z</time>
      </trkpt>
      <trkpt lat="47.39109" lon="7.21563">
        <ele>724</ele>
        <time>2026-05-12T15:50:59.000Z</time>
      </trkpt>
      <trkpt lat="47.39081" lon="7.2152">
        <ele>720</ele>
        <time>2026-05-12T15:51:45.000Z</time>
      </trkpt>
      <trkpt lat="47.39079" lon="7.21484">
        <ele>717</ele>
        <time>2026-05-12T15:52:13.000Z</time>
      </trkpt>
      <trkpt lat="47.39092" lon="7.21421">
        <ele>712</ele>
        <time>2026-05-12T15:53:04.000Z</time>
      </trkpt>
      <trkpt lat="47.39101" lon="7.21368">
        <ele>709</ele>
        <time>2026-05-12T15:53:47.000Z</time>
      </trkpt>
      <trkpt lat="47.39105" lon="7.21314">
        <ele>705</ele>
        <time>2026-05-12T15:54:29.000Z</time>
      </trkpt>
      <trkpt lat="47.39098" lon="7.21254">
        <ele>696</ele>
        <time>2026-05-12T15:55:17.000Z</time>
      </trkpt>
      <trkpt lat="47.39088" lon="7.21188">
        <ele>689</ele>
        <time>2026-05-12T15:56:09.000Z</time>
      </trkpt>
      <trkpt lat="47.39095" lon="7.21132">
        <ele>684</ele>
        <time>2026-05-12T15:56:53.000Z</time>
      </trkpt>
      <trkpt lat="47.39098" lon="7.21084">
        <ele>678</ele>
        <time>2026-05-12T15:57:31.000Z</time>
      </trkpt>
      <trkpt lat="47.3911" lon="7.21038">
        <ele>669</ele>
        <time>2026-05-12T15:58:09.000Z</time>
      </trkpt>
      <trkpt lat="47.39125" lon="7.2098">
        <ele>659</ele>
        <time>2026-05-12T15:58:57.000Z</time>
      </trkpt>
      <trkpt lat="47.39119" lon="7.20906">
        <ele>646</ele>
        <time>2026-05-12T15:59:55.000Z</time>
      </trkpt>
      <trkpt lat="47.3913" lon="7.20785">
        <ele>637</ele>
        <time>2026-05-12T16:01:29.000Z</time>
      </trkpt>
      <trkpt lat="47.39075" lon="7.20758">
        <ele>642</ele>
        <time>2026-05-12T16:03:26.000Z</time>
      </trkpt>
      <trkpt lat="47.39015" lon="7.20715">
        <ele>648</ele>
        <time>2026-05-12T16:05:44.000Z</time>
      </trkpt>
      <trkpt lat="47.3898" lon="7.20669">
        <ele>667</ele>
        <time>2026-05-12T16:09:53.000Z</time>
      </trkpt>
      <trkpt lat="47.38998" lon="7.20593">
        <ele>684</ele>
        <time>2026-05-12T16:13:50.000Z</time>
      </trkpt>
      <trkpt lat="47.39016" lon="7.20516">
        <ele>705</ele>
        <time>2026-05-12T16:18:29.000Z</time>
      </trkpt>
      <trkpt lat="47.39078" lon="7.20491">
        <ele>713</ele>
        <time>2026-05-12T16:21:05.000Z</time>
      </trkpt>
      <trkpt lat="47.39064" lon="7.20453">
        <ele>725</ele>
        <time>2026-05-12T16:23:42.000Z</time>
      </trkpt>
      <trkpt lat="47.39038" lon="7.20415">
        <ele>738</ele>
        <time>2026-05-12T16:26:37.000Z</time>
      </trkpt>
      <trkpt lat="47.39021" lon="7.20387">
        <ele>749</ele>
        <time>2026-05-12T16:28:59.000Z</time>
      </trkpt>
      <trkpt lat="47.39089" lon="7.20358">
        <ele>750</ele>
        <time>2026-05-12T16:30:31.000Z</time>
      </trkpt>
      <trkpt lat="47.39115" lon="7.2033">
        <ele>755</ele>
        <time>2026-05-12T16:31:59.000Z</time>
      </trkpt>
      <trkpt lat="47.39135" lon="7.20315">
        <ele>756</ele>
        <time>2026-05-12T16:32:35.000Z</time>
      </trkpt>
      <trkpt lat="47.39181" lon="7.2033">
        <ele>759</ele>
        <time>2026-05-12T16:34:00.000Z</time>
      </trkpt>
      <trkpt lat="47.39138" lon="7.20275">
        <ele>764</ele>
        <time>2026-05-12T16:35:57.000Z</time>
      </trkpt>
      <trkpt lat="47.39112" lon="7.2025">
        <ele>773</ele>
        <time>2026-05-12T16:38:05.000Z</time>
      </trkpt>
      <trkpt lat="47.39115" lon="7.20194">
        <ele>788</ele>
        <time>2026-05-12T16:41:22.000Z</time>
      </trkpt>
      <trkpt lat="47.39147" lon="7.20154">
        <ele>794</ele>
        <time>2026-05-12T16:43:11.000Z</time>
      </trkpt>
      <trkpt lat="47.39207" lon="7.20163">
        <ele>804</ele>
        <time>2026-05-12T16:46:03.000Z</time>
      </trkpt>
      <trkpt lat="47.3926" lon="7.20197">
        <ele>807</ele>
        <time>2026-05-12T16:47:40.000Z</time>
      </trkpt>
      <trkpt lat="47.39257" lon="7.20142">
        <ele>812</ele>
        <time>2026-05-12T16:49:14.000Z</time>
      </trkpt>
      <trkpt lat="47.39221" lon="7.20076">
        <ele>816</ele>
        <time>2026-05-12T16:51:00.000Z</time>
      </trkpt>
      <trkpt lat="47.39198" lon="7.20023">
        <ele>818</ele>
        <time>2026-05-12T16:52:09.000Z</time>
      </trkpt>
      <trkpt lat="47.3917" lon="7.19985">
        <ele>823</ele>
        <time>2026-05-12T16:53:45.000Z</time>
      </trkpt>
      <trkpt lat="47.39127" lon="7.1993">
        <ele>836</ele>
        <time>2026-05-12T16:57:04.000Z</time>
      </trkpt>
      <trkpt lat="47.39131" lon="7.19877">
        <ele>835</ele>
        <time>2026-05-12T16:57:45.000Z</time>
      </trkpt>
      <trkpt lat="47.39118" lon="7.19807">
        <ele>838</ele>
        <time>2026-05-12T16:59:12.000Z</time>
      </trkpt>
      <trkpt lat="47.39124" lon="7.19731">
        <ele>828</ele>
        <time>2026-05-12T17:00:11.000Z</time>
      </trkpt>
      <trkpt lat="47.39112" lon="7.19657">
        <ele>832</ele>
        <time>2026-05-12T17:01:51.000Z</time>
      </trkpt>
      <trkpt lat="47.39141" lon="7.19553">
        <ele>824</ele>
        <time>2026-05-12T17:03:18.000Z</time>
      </trkpt>
      <trkpt lat="47.39175" lon="7.19445">
        <ele>818</ele>
        <time>2026-05-12T17:04:51.000Z</time>
      </trkpt>
      <trkpt lat="47.39211" lon="7.19339">
        <ele>814</ele>
        <time>2026-05-12T17:06:23.000Z</time>
      </trkpt>
      <trkpt lat="47.39237" lon="7.19182">
        <ele>805</ele>
        <time>2026-05-12T17:08:28.000Z</time>
      </trkpt>
      <trkpt lat="47.39256" lon="7.19032">
        <ele>808</ele>
        <time>2026-05-12T17:10:57.000Z</time>
      </trkpt>
      <trkpt lat="47.3926" lon="7.18878">
        <ele>800</ele>
        <time>2026-05-12T17:12:57.000Z</time>
      </trkpt>
      <trkpt lat="47.39234" lon="7.1871">
        <ele>786</ele>
        <time>2026-05-12T17:15:10.000Z</time>
      </trkpt>
      <trkpt lat="47.39226" lon="7.18594">
        <ele>781</ele>
        <time>2026-05-12T17:16:41.000Z</time>
      </trkpt>
      <trkpt lat="47.39197" lon="7.18547">
        <ele>779</ele>
        <time>2026-05-12T17:17:30.000Z</time>
      </trkpt>
      <trkpt lat="47.39124" lon="7.18526">
        <ele>789</ele>
        <time>2026-05-12T17:20:38.000Z</time>
      </trkpt>
      <trkpt lat="47.39117" lon="7.18467">
        <ele>781</ele>
        <time>2026-05-12T17:21:25.000Z</time>
      </trkpt>
      <trkpt lat="47.39088" lon="7.18391">
        <ele>777</ele>
        <time>2026-05-12T17:22:33.000Z</time>
      </trkpt>
      <trkpt lat="47.39088" lon="7.1834">
        <ele>772</ele>
        <time>2026-05-12T17:23:12.000Z</time>
      </trkpt>
      <trkpt lat="47.39054" lon="7.18259">
        <ele>768</ele>
        <time>2026-05-12T17:24:26.000Z</time>
      </trkpt>
      <trkpt lat="47.39036" lon="7.18209">
        <ele>766</ele>
        <time>2026-05-12T17:25:10.000Z</time>
      </trkpt>
      <trkpt lat="47.38963" lon="7.18111">
        <ele>761</ele>
        <time>2026-05-12T17:27:03.000Z</time>
      </trkpt>
      <trkpt lat="47.38969" lon="7.17982">
        <ele>743</ele>
        <time>2026-05-12T17:28:43.000Z</time>
      </trkpt>
      <trkpt lat="47.38926" lon="7.17908">
        <ele>749</ele>
        <time>2026-05-12T17:31:00.000Z</time>
      </trkpt>
      <trkpt lat="47.38874" lon="7.17861">
        <ele>757</ele>
        <time>2026-05-12T17:33:31.000Z</time>
      </trkpt>
      <trkpt lat="47.3882" lon="7.17819">
        <ele>763</ele>
        <time>2026-05-12T17:35:43.000Z</time>
      </trkpt>
      <trkpt lat="47.38783" lon="7.17741">
        <ele>769</ele>
        <time>2026-05-12T17:37:59.000Z</time>
      </trkpt>
      <trkpt lat="47.38738" lon="7.17643">
        <ele>788</ele>
        <time>2026-05-12T17:42:45.000Z</time>
      </trkpt>
      <trkpt lat="47.38715" lon="7.17537">
        <ele>786</ele>
        <time>2026-05-12T17:44:11.000Z</time>
      </trkpt>
      <trkpt lat="47.38677" lon="7.17404">
        <ele>798</ele>
        <time>2026-05-12T17:48:07.000Z</time>
      </trkpt>
      <trkpt lat="47.38665" lon="7.17268">
        <ele>797</ele>
        <time>2026-05-12T17:49:53.000Z</time>
      </trkpt>
      <trkpt lat="47.38671" lon="7.17161">
        <ele>777</ele>
        <time>2026-05-12T17:51:17.000Z</time>
      </trkpt>
      <trkpt lat="47.38672" lon="7.17038">
        <ele>771</ele>
        <time>2026-05-12T17:52:52.000Z</time>
      </trkpt>
      <trkpt lat="47.38707" lon="7.16892">
        <ele>757</ele>
        <time>2026-05-12T17:54:52.000Z</time>
      </trkpt>
      <trkpt lat="47.38681" lon="7.16803">
        <ele>763</ele>
        <time>2026-05-12T17:57:09.000Z</time>
      </trkpt>
      <trkpt lat="47.38649" lon="7.16688">
        <ele>771</ele>
        <time>2026-05-12T18:00:07.000Z</time>
      </trkpt>
      <trkpt lat="47.38608" lon="7.16648">
        <ele>780</ele>
        <time>2026-05-12T18:02:36.000Z</time>
      </trkpt>
      <trkpt lat="47.38546" lon="7.1664">
        <ele>789</ele>
        <time>2026-05-12T18:05:19.000Z</time>
      </trkpt>
      <trkpt lat="47.38495" lon="7.16623">
        <ele>796</ele>
        <time>2026-05-12T18:07:32.000Z</time>
      </trkpt>
      <trkpt lat="47.38433" lon="7.16549">
        <ele>803</ele>
        <time>2026-05-12T18:10:15.000Z</time>
      </trkpt>
      <trkpt lat="47.3835" lon="7.16453">
        <ele>820</ele>
        <time>2026-05-12T18:15:10.000Z</time>
      </trkpt>
      <trkpt lat="47.38278" lon="7.16367">
        <ele>825</ele>
        <time>2026-05-12T18:17:48.000Z</time>
      </trkpt>
      <trkpt lat="47.38224" lon="7.16261">
        <ele>819</ele>
        <time>2026-05-12T18:19:31.000Z</time>
      </trkpt>
      <trkpt lat="47.38189" lon="7.16195">
        <ele>821</ele>
        <time>2026-05-12T18:20:56.000Z</time>
      </trkpt>
      <trkpt lat="47.38136" lon="7.16165">
        <ele>830</ele>
        <time>2026-05-12T18:23:33.000Z</time>
      </trkpt>
      <trkpt lat="47.38082" lon="7.16121">
        <ele>839</ele>
        <time>2026-05-12T18:26:17.000Z</time>
      </trkpt>
      <trkpt lat="47.38046" lon="7.16123">
        <ele>843</ele>
        <time>2026-05-12T18:27:39.000Z</time>
      </trkpt>
      <trkpt lat="47.38079" lon="7.16206">
        <ele>858</ele>
        <time>2026-05-12T18:31:28.000Z</time>
      </trkpt>
      <trkpt lat="47.38096" lon="7.16259">
        <ele>872</ele>
        <time>2026-05-12T18:34:37.000Z</time>
      </trkpt>
      <trkpt lat="47.38139" lon="7.16335">
        <ele>893</ele>
        <time>2026-05-12T18:39:30.000Z</time>
      </trkpt>
      <trkpt lat="47.38176" lon="7.16422">
        <ele>905</ele>
        <time>2026-05-12T18:42:53.000Z</time>
      </trkpt>
      <trkpt lat="47.38229" lon="7.16523">
        <ele>906</ele>
        <time>2026-05-12T18:44:43.000Z</time>
      </trkpt>
      <trkpt lat="47.38282" lon="7.1664">
        <ele>917</ele>
        <time>2026-05-12T18:48:25.000Z</time>
      </trkpt>
      <trkpt lat="47.38328" lon="7.16716">
        <ele>925</ele>
        <time>2026-05-12T18:51:06.000Z</time>
      </trkpt>
      <trkpt lat="47.38357" lon="7.1686">
        <ele>931</ele>
        <time>2026-05-12T18:54:04.000Z</time>
      </trkpt>
      <trkpt lat="47.38386" lon="7.17021">
        <ele>931</ele>
        <time>2026-05-12T18:56:13.000Z</time>
      </trkpt>
      <trkpt lat="47.38433" lon="7.17226">
        <ele>923</ele>
        <time>2026-05-12T18:59:01.000Z</time>
      </trkpt>
      <trkpt lat="47.3846" lon="7.17381">
        <ele>917</ele>
        <time>2026-05-12T19:01:05.000Z</time>
      </trkpt>
      <trkpt lat="47.38553" lon="7.17673">
        <ele>921</ele>
        <time>2026-05-12T19:05:56.000Z</time>
      </trkpt>
      <trkpt lat="47.38652" lon="7.17923">
        <ele>917</ele>
        <time>2026-05-12T19:09:40.000Z</time>
      </trkpt>
      <trkpt lat="47.38697" lon="7.18046">
        <ele>916</ele>
        <time>2026-05-12T19:11:28.000Z</time>
      </trkpt>
      <trkpt lat="47.38722" lon="7.18139">
        <ele>921</ele>
        <time>2026-05-12T19:13:37.000Z</time>
      </trkpt>
      <trkpt lat="47.38725" lon="7.18198">
        <ele>920</ele>
        <time>2026-05-12T19:14:23.000Z</time>
      </trkpt>
      <trkpt lat="47.38764" lon="7.18291">
        <ele>922</ele>
        <time>2026-05-12T19:16:08.000Z</time>
      </trkpt>
      <trkpt lat="47.38827" lon="7.18427">
        <ele>935</ele>
        <time>2026-05-12T19:20:29.000Z</time>
      </trkpt>
      <trkpt lat="47.38883" lon="7.18556">
        <ele>936</ele>
        <time>2026-05-12T19:22:38.000Z</time>
      </trkpt>
      <trkpt lat="47.3894" lon="7.18643">
        <ele>938</ele>
        <time>2026-05-12T19:24:33.000Z</time>
      </trkpt>
      <trkpt lat="47.38926" lon="7.18708">
        <ele>930</ele>
        <time>2026-05-12T19:25:27.000Z</time>
      </trkpt>
      <trkpt lat="47.38969" lon="7.18727">
        <ele>937</ele>
        <time>2026-05-12T19:27:30.000Z</time>
      </trkpt>
      <trkpt lat="47.39012" lon="7.18852">
        <ele>939</ele>
        <time>2026-05-12T19:29:39.000Z</time>
      </trkpt>
      <trkpt lat="47.3893" lon="7.18922">
        <ele>910</ele>
        <time>2026-05-12T19:31:27.000Z</time>
      </trkpt>
      <trkpt lat="47.38859" lon="7.18882">
        <ele>898</ele>
        <time>2026-05-12T19:32:55.000Z</time>
      </trkpt>
      <trkpt lat="47.38867" lon="7.18939">
        <ele>894</ele>
        <time>2026-05-12T19:33:40.000Z</time>
      </trkpt>
      <trkpt lat="47.38879" lon="7.19038">
        <ele>888</ele>
        <time>2026-05-12T19:34:58.000Z</time>
      </trkpt>
      <trkpt lat="47.38851" lon="7.19151">
        <ele>876</ele>
        <time>2026-05-12T19:36:30.000Z</time>
      </trkpt>
      <trkpt lat="47.3884" lon="7.19261">
        <ele>870</ele>
        <time>2026-05-12T19:37:56.000Z</time>
      </trkpt>
      <trkpt lat="47.38847" lon="7.19356">
        <ele>865</ele>
        <time>2026-05-12T19:39:10.000Z</time>
      </trkpt>
      <trkpt lat="47.38847" lon="7.19464">
        <ele>861</ele>
        <time>2026-05-12T19:40:34.000Z</time>
      </trkpt>
      <trkpt lat="47.38823" lon="7.19528">
        <ele>857</ele>
        <time>2026-05-12T19:41:31.000Z</time>
      </trkpt>
      <trkpt lat="47.38781" lon="7.19627">
        <ele>854</ele>
        <time>2026-05-12T19:43:02.000Z</time>
      </trkpt>
      <trkpt lat="47.38761" lon="7.19699">
        <ele>853</ele>
        <time>2026-05-12T19:44:02.000Z</time>
      </trkpt>
      <trkpt lat="47.38741" lon="7.19818">
        <ele>835</ele>
        <time>2026-05-12T19:45:37.000Z</time>
      </trkpt>
      <trkpt lat="47.38707" lon="7.19936">
        <ele>818</ele>
        <time>2026-05-12T19:47:17.000Z</time>
      </trkpt>
      <trkpt lat="47.38662" lon="7.20076">
        <ele>812</ele>
        <time>2026-05-12T19:49:17.000Z</time>
      </trkpt>
      <trkpt lat="47.38586" lon="7.20201">
        <ele>793</ele>
        <time>2026-05-12T19:51:27.000Z</time>
      </trkpt>
      <trkpt lat="47.38552" lon="7.20233">
        <ele>789</ele>
        <time>2026-05-12T19:52:13.000Z</time>
      </trkpt>
      <trkpt lat="47.3852" lon="7.20319">
        <ele>791</ele>
        <time>2026-05-12T19:53:50.000Z</time>
      </trkpt>
      <trkpt lat="47.38505" lon="7.20427">
        <ele>802</ele>
        <time>2026-05-12T19:57:09.000Z</time>
      </trkpt>
      <trkpt lat="47.3848" lon="7.20595">
        <ele>808</ele>
        <time>2026-05-12T20:00:23.000Z</time>
      </trkpt>
      <trkpt lat="47.38463" lon="7.20641">
        <ele>809</ele>
        <time>2026-05-12T20:01:14.000Z</time>
      </trkpt>
      <trkpt lat="47.3843" lon="7.20717">
        <ele>807</ele>
        <time>2026-05-12T20:02:24.000Z</time>
      </trkpt>
      <trkpt lat="47.38393" lon="7.20834">
        <ele>802</ele>
        <time>2026-05-12T20:04:04.000Z</time>
      </trkpt>
      <trkpt lat="47.3836" lon="7.20885">
        <ele>798</ele>
        <time>2026-05-12T20:04:59.000Z</time>
      </trkpt>
      <trkpt lat="47.38301" lon="7.20929">
        <ele>794</ele>
        <time>2026-05-12T20:06:15.000Z</time>
      </trkpt>
      <trkpt lat="47.38248" lon="7.20908">
        <ele>779</ele>
        <time>2026-05-12T20:07:18.000Z</time>
      </trkpt>
      <trkpt lat="47.38206" lon="7.20878">
        <ele>786</ele>
        <time>2026-05-12T20:09:23.000Z</time>
      </trkpt>
      <trkpt lat="47.38155" lon="7.20868">
        <ele>790</ele>
        <time>2026-05-12T20:11:04.000Z</time>
      </trkpt>
      <trkpt lat="47.38136" lon="7.2091">
        <ele>801</ele>
        <time>2026-05-12T20:13:36.000Z</time>
      </trkpt>
      <trkpt lat="47.38113" lon="7.20972">
        <ele>817</ele>
        <time>2026-05-12T20:17:15.000Z</time>
      </trkpt>
      <trkpt lat="47.38066" lon="7.20986">
        <ele>812</ele>
        <time>2026-05-12T20:18:10.000Z</time>
      </trkpt>
      <trkpt lat="47.37981" lon="7.20962">
        <ele>818</ele>
        <time>2026-05-12T20:20:50.000Z</time>
      </trkpt>
      <trkpt lat="47.37983" lon="7.21034">
        <ele>825</ele>
        <time>2026-05-12T20:22:58.000Z</time>
      </trkpt>
      <trkpt lat="47.37994" lon="7.21078">
        <ele>826</ele>
        <time>2026-05-12T20:23:45.000Z</time>
      </trkpt>
      <trkpt lat="47.38013" lon="7.21136">
        <ele>827</ele>
        <time>2026-05-12T20:24:45.000Z</time>
      </trkpt>
      <trkpt lat="47.38028" lon="7.2119">
        <ele>831</ele>
        <time>2026-05-12T20:26:12.000Z</time>
      </trkpt>
      <trkpt lat="47.3805" lon="7.2123">
        <ele>834</ele>
        <time>2026-05-12T20:27:23.000Z</time>
      </trkpt>
      <trkpt lat="47.381" lon="7.21325">
        <ele>842</ele>
        <time>2026-05-12T20:30:18.000Z</time>
      </trkpt>
      <trkpt lat="47.38157" lon="7.21439">
        <ele>850</ele>
        <time>2026-05-12T20:33:30.000Z</time>
      </trkpt>
      <trkpt lat="47.38172" lon="7.21508">
        <ele>850</ele>
        <time>2026-05-12T20:34:27.000Z</time>
      </trkpt>
      <trkpt lat="47.38199" lon="7.21582">
        <ele>850</ele>
        <time>2026-05-12T20:35:32.000Z</time>
      </trkpt>
      <trkpt lat="47.38232" lon="7.21653">
        <ele>854</ele>
        <time>2026-05-12T20:37:20.000Z</time>
      </trkpt>
      <trkpt lat="47.38255" lon="7.21745">
        <ele>857</ele>
        <time>2026-05-12T20:39:07.000Z</time>
      </trkpt>
      <trkpt lat="47.38259" lon="7.21801">
        <ele>854</ele>
        <time>2026-05-12T20:39:50.000Z</time>
      </trkpt>
      <trkpt lat="47.38307" lon="7.2187">
        <ele>855</ele>
        <time>2026-05-12T20:41:17.000Z</time>
      </trkpt>
      <trkpt lat="47.38349" lon="7.21945">
        <ele>855</ele>
        <time>2026-05-12T20:42:32.000Z</time>
      </trkpt>
      <trkpt lat="47.38388" lon="7.22007">
        <ele>851</ele>
        <time>2026-05-12T20:43:38.000Z</time>
      </trkpt>
      <trkpt lat="47.38423" lon="7.2198">
        <ele>857</ele>
        <time>2026-05-12T20:45:25.000Z</time>
      </trkpt>
      <trkpt lat="47.38473" lon="7.21959">
        <ele>852</ele>
        <time>2026-05-12T20:46:24.000Z</time>
      </trkpt>
    </trkseg>
  </trk>
</gpx>